Time;durP1;ratioP1;P1;durP2;ratioP2;P2;SDS_P1;SDS_P2;PMS_P1;PMS_P2;Temp;Humidity;BMP_temperature;BMP_pressure;BME280_temperature;BME280_humidity;BME280_pressure;Samples;Min_cycle;Max_cycle;Signal;HPM_P1;HPM_P2
2021/07/14 04:01:20;;;;;;;5.00;4.50;;;15.70;99.90;;;;;;5547660;23;20504;-66
2021/07/14 04:03:48;;;;;;;5.17;4.77;;;15.80;99.90;;;;;;4978066;28;20459;-66
2021/07/14 04:06:17;;;;;;;4.90;4.50;;;15.80;99.90;;;;;;4978603;28;20458;-66
2021/07/14 04:08:45;;;;;;;4.73;4.43;;;15.90;99.90;;;;;;4978180;28;20486;-66
2021/07/14 04:11:13;;;;;;;8.00;4.77;;;15.90;99.90;;;;;;4977694;28;20984;-66
2021/07/14 04:13:39;;;;;;;8.17;5.33;;;15.80;99.90;;;;;;4978441;28;20458;-66
2021/07/14 04:16:06;;;;;;;5.87;4.77;;;15.80;99.90;;;;;;4978318;28;20502;-67
2021/07/14 04:18:34;;;;;;;10.83;5.40;;;15.70;99.90;;;;;;4977712;28;20482;-67
2021/07/14 04:21:01;;;;;;;7.10;5.57;;;15.70;99.90;;;;;;4977647;28;20471;-68
2021/07/14 04:23:28;;;;;;;7.43;5.07;;;15.60;99.90;;;;;;4978232;28;20821;-67
2021/07/14 04:25:54;;;;;;;9.30;5.43;;;15.70;99.90;;;;;;4978080;28;20454;-66
2021/07/14 04:28:21;;;;;;;8.07;6.00;;;15.60;99.90;;;;;;4978141;28;20791;-66
2021/07/14 04:30:49;;;;;;;6.07;5.67;;;15.50;99.90;;;;;;4977484;28;20486;-66
2021/07/14 04:33:15;;;;;;;7.27;5.70;;;15.60;99.90;;;;;;4977846;28;20537;-65
2021/07/14 04:35:43;;;;;;;6.77;6.07;;;15.60;99.90;;;;;;4977780;28;20454;-66
2021/07/14 04:38:10;;;;;;;8.87;6.37;;;15.40;99.90;;;;;;4977547;28;20489;-66
2021/07/14 04:40:37;;;;;;;6.50;5.87;;;15.40;99.90;;;;;;4977485;28;20479;-66
2021/07/14 04:43:04;;;;;;;7.27;5.60;;;15.50;99.90;;;;;;4977553;28;20466;-66
2021/07/14 04:45:31;;;;;;;7.37;6.50;;;15.50;99.90;;;;;;4980899;28;20454;-66
2021/07/14 04:47:58;;;;;;;6.73;5.93;;;15.50;99.90;;;;;;4977975;28;20954;-67
2021/07/14 04:50:24;;;;;;;5.73;5.33;;;15.60;99.90;;;;;;4977429;28;20465;-65
2021/07/14 04:52:53;;;;;;;5.63;5.23;;;15.70;99.90;;;;;;4977525;28;20462;-65
2021/07/14 04:55:20;;;;;;;6.70;6.00;;;15.80;99.90;;;;;;4977479;28;20458;-66
2021/07/14 04:57:47;;;;;;;5.57;5.07;;;16.00;99.90;;;;;;4977160;28;21025;-67
2021/07/14 05:00:17;;;;;;;15.77;6.67;;;16.10;99.90;;;;;;4977230;28;20462;-66
2021/07/14 05:02:44;;;;;;;6.07;5.20;;;16.10;99.90;;;;;;4977375;28;20899;-66
2021/07/14 05:05:12;;;;;;;5.70;5.20;;;16.10;99.90;;;;;;4977451;28;20502;-66
2021/07/14 05:07:39;;;;;;;8.30;5.20;;;16.20;99.90;;;;;;4977273;28;20457;-67
2021/07/14 05:10:09;;;;;;;6.03;5.50;;;16.30;99.90;;;;;;4977293;28;20459;-67
2021/07/14 05:12:36;;;;;;;8.20;5.67;;;16.40;99.90;;;;;;4977014;28;20439;-66
2021/07/14 05:15:03;;;;;;;5.00;4.70;;;16.50;99.90;;;;;;4976947;28;20477;-66
2021/07/14 05:17:30;;;;;;;7.67;5.27;;;16.50;99.90;;;;;;4976913;28;20475;-67
2021/07/14 05:19:57;;;;;;;6.03;5.43;;;16.50;99.90;;;;;;4976589;28;20458;-67
2021/07/14 05:22:24;;;;;;;6.27;4.97;;;16.60;99.90;;;;;;4976618;28;21015;-66
2021/07/14 05:24:51;;;;;;;6.50;5.27;;;16.60;99.90;;;;;;4977003;28;20455;-66
2021/07/14 05:27:19;;;;;;;5.10;4.70;;;16.60;99.90;;;;;;4977143;28;20834;-66
2021/07/14 05:29:45;;;;;;;6.17;5.50;;;16.60;99.90;;;;;;4976619;28;20466;-67
2021/07/14 05:32:12;;;;;;;7.67;5.07;;;16.60;99.90;;;;;;4976419;28;20474;-65
2021/07/14 05:34:39;;;;;;;6.50;5.07;;;16.60;99.90;;;;;;4976464;28;20788;-65
2021/07/14 05:37:05;;;;;;;5.67;5.07;;;16.70;99.90;;;;;;4976392;28;21000;-66
2021/07/14 05:39:32;;;;;;;6.30;5.70;;;16.60;99.90;;;;;;4976503;28;20462;-66
2021/07/14 05:41:59;;;;;;;5.27;4.87;;;16.70;99.90;;;;;;4976623;28;20879;-67
2021/07/14 05:44:27;;;;;;;4.97;4.67;;;16.70;99.90;;;;;;4976110;28;20466;-66
2021/07/14 05:46:53;;;;;;;6.30;5.67;;;16.80;99.90;;;;;;4976358;28;20466;-67
2021/07/14 05:49:20;;;;;;;5.60;5.10;;;16.90;99.90;;;;;;4976628;28;20459;-67
2021/07/14 05:51:47;;;;;;;5.07;4.57;;;16.90;99.90;;;;;;4976377;28;20471;-66
2021/07/14 05:54:14;;;;;;;7.23;5.40;;;16.90;99.90;;;;;;4976648;28;20459;-66
2021/07/14 05:56:40;;;;;;;6.37;5.27;;;16.90;99.90;;;;;;4976036;28;20458;-66
2021/07/14 05:59:08;;;;;;;6.13;5.43;;;16.90;99.90;;;;;;4976255;28;20474;-67
2021/07/14 06:01:37;;;;;;;7.23;4.87;;;16.90;99.90;;;;;;4975828;28;20482;-66
2021/07/14 06:04:04;;;;;;;5.63;5.23;;;16.90;99.90;;;;;;4976113;28;20458;-66
2021/07/14 06:06:31;;;;;;;8.00;5.10;;;16.90;99.90;;;;;;4976501;28;20455;-67
2021/07/14 06:08:58;;;;;;;7.43;5.57;;;16.90;99.90;;;;;;4976429;28;20450;-66
2021/07/14 06:11:25;;;;;;;9.70;6.57;;;16.90;99.90;;;;;;4976215;28;20510;-66
2021/07/14 06:13:52;;;;;;;11.70;5.20;;;17.00;99.90;;;;;;4975927;28;20946;-66
2021/07/14 06:16:19;;;;;;;7.10;5.57;;;17.00;99.90;;;;;;4978778;28;20465;-66
2021/07/14 06:18:47;;;;;;;7.83;4.83;;;17.00;99.90;;;;;;4976643;28;20840;-66
2021/07/14 06:21:14;;;;;;;6.63;5.83;;;17.00;99.90;;;;;;4975807;28;20475;-66
2021/07/14 06:23:41;;;;;;;6.30;5.70;;;16.90;99.90;;;;;;4975668;28;20942;-67
2021/07/14 06:26:07;;;;;;;5.63;5.13;;;16.90;99.90;;;;;;4975903;28;20469;-67
2021/07/14 06:28:34;;;;;;;8.70;5.60;;;17.00;99.90;;;;;;4975878;28;20455;-66
2021/07/14 06:31:01;;;;;;;9.30;5.50;;;17.10;99.90;;;;;;4975621;28;20478;-66
2021/07/14 06:33:28;;;;;;;7.40;5.77;;;17.10;99.90;;;;;;4975583;28;20854;-67
2021/07/14 06:35:56;;;;;;;7.10;5.00;;;17.20;99.90;;;;;;4975554;28;20554;-67
2021/07/14 06:38:24;;;;;;;11.73;6.20;;;17.30;99.90;;;;;;4975696;28;20474;-67
2021/07/14 06:40:50;;;;;;;5.83;5.20;;;17.20;99.90;;;;;;4975524;28;20509;-67
2021/07/14 06:43:18;;;;;;;6.10;4.63;;;17.30;99.90;;;;;;4975710;28;20466;-67
2021/07/14 06:45:47;;;;;;;5.97;5.33;;;17.40;99.90;;;;;;4975382;28;20465;-67
2021/07/14 06:48:14;;;;;;;5.60;5.10;;;17.40;99.90;;;;;;4975320;28;20465;-67
2021/07/14 06:50:41;;;;;;;6.07;5.47;;;17.50;99.90;;;;;;4975393;28;20475;-67
2021/07/14 06:53:09;;;;;;;5.50;5.10;;;17.60;99.90;;;;;;4975501;28;20462;-66
2021/07/14 06:55:36;;;;;;;4.90;4.50;;;17.60;99.90;;;;;;4975324;28;20446;-66
2021/07/14 06:58:02;;;;;;;5.27;4.80;;;17.60;99.90;;;;;;4974774;28;20985;-66
2021/07/14 07:00:34;;;;;;;5.47;4.97;;;17.40;99.90;;;;;;4975341;28;20455;-66
2021/07/14 07:03:01;;;;;;;8.87;5.27;;;17.30;99.90;;;;;;4975788;28;20447;-66
2021/07/14 07:05:28;;;;;;;5.90;5.43;;;17.30;99.90;;;;;;4975577;28;20458;-66
2021/07/14 07:07:55;;;;;;;8.53;5.40;;;17.00;99.90;;;;;;4975459;28;20462;-66
2021/07/14 07:10:23;;;;;;;5.87;5.37;;;17.00;99.90;;;;;;4975805;28;20454;-66
2021/07/14 07:12:49;;;;;;;5.97;5.47;;;17.10;99.90;;;;;;4975291;28;20458;-66
2021/07/14 07:15:18;;;;;;;7.17;5.20;;;17.20;99.90;;;;;;4975433;28;20462;-66
2021/07/14 07:17:45;;;;;;;6.60;6.00;;;17.30;99.90;;;;;;4974961;28;20883;-66
2021/07/14 07:20:14;;;;;;;6.40;5.80;;;17.20;99.90;;;;;;4974804;28;20462;-65
2021/07/14 07:22:41;;;;;;;7.13;6.10;;;17.20;99.90;;;;;;4975246;28;20458;-66
2021/07/14 07:25:08;;;;;;;7.07;6.37;;;17.10;99.90;;;;;;4975248;28;20807;-66
2021/07/14 07:27:38;;;;;;;7.90;6.10;;;17.20;99.90;;;;;;4975227;28;20459;-66
2021/07/14 07:30:08;;;;;;;6.43;5.93;;;17.10;99.90;;;;;;4975339;28;20451;-66
2021/07/14 07:32:35;;;;;;;8.03;6.10;;;17.20;99.90;;;;;;4974926;28;20479;-66
2021/07/14 07:35:01;;;;;;;7.10;5.93;;;17.30;99.90;;;;;;4975356;28;20463;-66
2021/07/14 07:37:28;;;;;;;7.50;5.70;;;17.30;99.90;;;;;;4975023;28;20458;-65
2021/07/14 07:39:55;;;;;;;7.20;5.63;;;17.30;99.90;;;;;;4975237;28;20454;-65
2021/07/14 07:42:21;;;;;;;6.40;5.80;;;17.30;99.90;;;;;;4974734;28;20998;-65
2021/07/14 07:44:50;;;;;;;6.60;5.90;;;17.30;99.90;;;;;;4975187;28;20454;-65
2021/07/14 07:47:17;;;;;;;6.77;5.50;;;17.30;99.90;;;;;;4976423;28;20517;-65
2021/07/14 07:49:45;;;;;;;9.70;5.53;;;17.30;99.90;;;;;;4976434;28;20482;-65
2021/07/14 07:52:12;;;;;;;7.53;5.60;;;17.30;99.90;;;;;;4975222;28;20533;-65
2021/07/14 07:54:39;;;;;;;6.60;5.17;;;17.30;99.90;;;;;;4975171;28;20462;-66
2021/07/14 07:57:06;;;;;;;6.23;5.73;;;17.40;99.90;;;;;;4975483;28;20462;-65
2021/07/14 07:59:34;;;;;;;9.50;6.23;;;17.40;99.90;;;;;;4975111;28;20479;-65
2021/07/14 08:02:02;;;;;;;15.43;6.20;;;17.50;99.90;;;;;;4974822;28;20482;-65
2021/07/14 08:04:29;;;;;;;7.23;6.13;;;17.50;99.90;;;;;;4986736;28;20786;-66
2021/07/14 08:06:56;;;;;;;7.33;6.37;;;17.50;99.90;;;;;;4976517;28;20942;-66
2021/07/14 08:09:23;;;;;;;6.60;6.00;;;17.50;99.90;;;;;;4978620;28;20458;-66
2021/07/14 08:11:50;;;;;;;7.77;6.73;;;17.60;99.90;;;;;;4978691;28;20482;-66
2021/07/14 08:14:17;;;;;;;7.70;7.07;;;17.60;99.90;;;;;;4978367;28;20458;-66
2021/07/14 08:16:44;;;;;;;7.20;6.60;;;17.60;99.90;;;;;;4978731;28;20996;-66
2021/07/14 08:19:12;;;;;;;7.30;6.33;;;17.70;99.90;;;;;;4983635;28;20474;-66
2021/07/14 08:21:40;;;;;;;6.60;6.00;;;17.60;99.90;;;;;;4983906;28;20474;-66
2021/07/14 08:24:07;;;;;;;8.13;6.97;;;17.60;99.90;;;;;;4985894;28;20454;-66
2021/07/14 08:26:34;;;;;;;7.43;5.50;;;17.60;99.90;;;;;;4985480;28;20451;-66
2021/07/14 08:29:01;;;;;;;13.40;6.60;;;17.80;99.90;;;;;;4985675;28;20458;-66
2021/07/14 08:31:28;;;;;;;6.50;5.87;;;17.70;99.90;;;;;;4984784;28;20475;-68
2021/07/14 08:33:56;;;;;;;7.20;6.50;;;17.60;99.90;;;;;;4984145;28;20455;-66
2021/07/14 08:36:24;;;;;;;6.07;5.57;;;17.60;99.90;;;;;;4984545;28;20466;-66
2021/07/14 08:38:51;;;;;;;7.70;5.70;;;17.50;99.90;;;;;;4984114;28;20471;-66
2021/07/14 08:41:20;;;;;;;6.50;5.90;;;17.40;99.90;;;;;;4984332;28;20474;-66
2021/07/14 08:43:47;;;;;;;9.60;6.30;;;17.40;99.90;;;;;;4984049;28;20482;-66
2021/07/14 08:46:14;;;;;;;7.17;6.57;;;17.30;99.90;;;;;;4985170;28;20455;-66
2021/07/14 08:48:41;;;;;;;8.50;7.17;;;17.30;99.90;;;;;;4985712;28;20451;-65
2021/07/14 08:51:09;;;;;;;12.23;6.53;;;17.10;99.90;;;;;;4985327;28;20808;-65
2021/07/14 08:53:37;;;;;;;12.50;7.70;;;17.00;99.90;;;;;;4985780;28;20465;-65
2021/07/14 08:56:04;;;;;;;7.93;7.10;;;16.80;99.90;;;;;;4984924;28;20458;-65
2021/07/14 08:58:31;;;;;;;8.93;7.87;;;16.70;99.90;;;;;;4981203;28;20479;-64
2021/07/14 09:01:01;;;;;;;9.83;7.37;;;16.70;99.90;;;;;;4978261;28;20486;-64
2021/07/14 09:03:29;;;;;;;7.87;7.17;;;16.60;99.90;;;;;;4977462;28;20439;-64
2021/07/14 09:05:55;;;;;;;7.23;6.67;;;16.70;99.90;;;;;;4977632;28;20459;-65
2021/07/14 09:08:22;;;;;;;8.43;7.60;;;16.70;99.90;;;;;;4978100;28;20545;-65
2021/07/14 09:10:51;;;;;;;10.50;7.40;;;16.80;99.90;;;;;;4977624;28;20479;-65
2021/07/14 09:13:18;;;;;;;13.30;7.90;;;16.80;99.90;;;;;;4978242;28;20462;-65
2021/07/14 09:15:48;;;;;;;10.77;7.47;;;17.00;99.90;;;;;;4980344;28;20455;-64
2021/07/14 09:18:16;;;;;;;8.03;7.23;;;16.90;99.90;;;;;;4983910;28;20474;-64
2021/07/14 09:20:43;;;;;;;7.33;6.83;;;16.90;99.90;;;;;;4984076;28;20841;-65
2021/07/14 09:23:12;;;;;;;7.20;6.50;;;16.80;99.90;;;;;;4984809;28;20458;-64
2021/07/14 09:25:42;;;;;;;12.97;7.63;;;16.90;99.90;;;;;;4985521;28;20510;-64
2021/07/14 09:28:11;;;;;;;8.50;7.10;;;17.00;99.90;;;;;;4986188;28;20983;-64
2021/07/14 09:30:40;;;;;;;9.03;6.60;;;17.00;99.90;;;;;;4985453;28;20477;-65
2021/07/14 09:33:08;;;;;;;11.67;7.57;;;17.00;99.90;;;;;;4984997;28;20455;-65
2021/07/14 09:35:38;;;;;;;8.43;7.77;;;17.00;99.90;;;;;;4983279;28;20462;-65
2021/07/14 09:38:09;;;;;;;7.90;6.70;;;17.00;99.90;;;;;;4983482;28;20442;-65
2021/07/14 09:40:36;;;;;;;7.83;7.07;;;17.10;99.90;;;;;;4983292;28;20486;-65
2021/07/14 09:43:05;;;;;;;7.93;6.70;;;17.10;99.90;;;;;;4980850;28;20450;-65
2021/07/14 09:45:52;;;;;;;10.57;6.77;;;17.40;99.90;;;;;;4978914;28;20465;-65
2021/07/14 09:48:25;;;;;;;6.83;6.00;;;17.60;99.90;;;;;;4978603;28;20523;-65
2021/07/14 09:50:55;;;;;;;7.40;6.30;;;17.80;99.90;;;;;;4977393;28;20477;-65
2021/07/14 09:53:23;;;;;;;13.00;7.23;;;18.00;99.90;;;;;;4977288;28;20439;-65
2021/07/14 09:55:52;;;;;;;6.93;6.37;;;18.00;99.90;;;;;;4976888;28;20451;-65
2021/07/14 09:58:24;;;;;;;6.93;6.30;;;18.20;99.90;;;;;;4977499;28;20541;-65
2021/07/14 10:00:54;;;;;;;6.23;5.67;;;18.50;99.90;;;;;;4976209;28;20522;-65
2021/07/14 10:03:26;;;;;;;13.07;6.40;;;18.50;99.90;;;;;;4976504;28;20443;-65
2021/07/14 10:06:08;;;;;;;7.50;5.40;;;18.70;99.90;;;;;;4976432;28;20454;-65
2021/07/14 10:08:35;;;;;;;7.67;5.60;;;18.90;99.90;;;;;;4976775;28;20509;-65
2021/07/14 10:11:14;;;;;;;5.73;5.20;;;19.00;99.90;;;;;;4977100;28;20490;-65
2021/07/14 10:13:55;;;;;;;6.30;5.77;;;19.20;99.90;;;;;;4976680;28;20462;-65
2021/07/14 10:16:25;;;;;;;6.73;6.10;;;19.40;99.90;;;;;;4976952;28;20915;-65
2021/07/14 10:18:59;;;;;;;8.40;5.73;;;19.60;99.90;;;;;;4979430;28;20482;-66
2021/07/14 10:21:26;;;;;;;6.17;5.30;;;19.90;99.90;;;;;;4976313;28;20485;-67
2021/07/14 10:23:54;;;;;;;7.30;5.77;;;20.00;99.90;;;;;;4976417;28;20461;-65
2021/07/14 10:26:21;;;;;;;6.20;5.70;;;20.30;99.90;;;;;;4976231;28;20458;-65
2021/07/14 10:28:49;;;;;;;4.77;4.37;;;20.60;99.90;;;;;;4975875;28;20455;-65
2021/07/14 10:31:17;;;;;;;6.60;5.10;;;20.70;99.90;;;;;;4976059;28;20996;-65
2021/07/14 10:33:45;;;;;;;7.60;4.90;;;20.90;99.90;;;;;;4975936;28;20451;-64
2021/07/14 10:36:14;;;;;;;6.17;4.80;;;21.00;99.90;;;;;;4976419;28;20883;-64
2021/07/14 10:38:47;;;;;;;8.47;5.50;;;21.10;99.90;;;;;;4976395;28;20545;-67
2021/07/14 10:41:14;;;;;;;4.70;4.40;;;21.30;99.90;;;;;;4976340;28;20513;-65
2021/07/14 10:43:43;;;;;;;7.70;4.40;;;21.40;99.90;;;;;;4975771;28;20458;-66
2021/07/14 10:46:11;;;;;;;5.10;4.60;;;21.60;99.90;;;;;;4975631;28;20454;-66
2021/07/14 10:48:42;;;;;;;4.73;4.30;;;21.70;99.90;;;;;;4975598;28;20463;-66
2021/07/14 10:51:10;;;;;;;5.00;4.60;;;21.80;99.90;;;;;;4975546;28;20489;-66
2021/07/14 10:53:38;;;;;;;5.03;4.60;;;21.50;99.90;;;;;;4975354;28;20461;-66
2021/07/14 10:56:07;;;;;;;6.10;5.60;;;21.40;99.90;;;;;;4975459;28;20466;-66
2021/07/14 10:58:35;;;;;;;5.10;4.60;;;21.40;99.90;;;;;;4975661;28;20490;-66
2021/07/14 11:01:02;;;;;;;6.27;4.53;;;21.30;99.90;;;;;;4975240;28;20483;-66
2021/07/14 11:03:43;;;;;;;5.87;5.27;;;21.30;99.90;;;;;;4975462;28;20458;-66
2021/07/14 11:06:13;;;;;;;7.33;5.70;;;21.50;99.90;;;;;;4975452;28;20493;-66
2021/07/14 11:08:42;;;;;;;4.90;4.50;;;21.60;99.90;;;;;;4975308;28;20458;-66
2021/07/14 11:11:10;;;;;;;4.50;4.10;;;21.70;99.90;;;;;;4975490;28;20485;-66
2021/07/14 11:13:38;;;;;;;4.60;4.30;;;21.60;99.90;;;;;;4975196;28;20455;-66
2021/07/14 11:16:27;;;;;;;5.40;4.50;;;21.90;99.90;;;;;;4975471;28;20454;-66
2021/07/14 11:19:03;;;;;;;4.03;3.60;;;22.20;99.90;;;;;;4975340;28;20486;-66
2021/07/14 11:21:51;;;;;;;4.43;4.03;;;22.30;99.90;;;;;;4975100;28;20475;-65
2021/07/14 11:24:53;;;;;;;3.90;3.50;;;22.30;99.90;;;;;;4975143;28;20818;-65
2021/07/14 11:27:55;;;;;;;3.90;3.60;;;22.30;99.90;;;;;;4975187;28;20442;-65
2021/07/14 11:30:28;;;;;;;4.43;4.03;;;22.60;99.90;;;;;;4974951;28;20805;-66
2021/07/14 11:33:00;;;;;;;6.90;3.80;;;22.80;99.90;;;;;;4975493;28;20506;-65
2021/07/14 11:35:36;;;;;;;2.87;2.77;;;23.10;99.90;;;;;;4975283;28;20481;-65
2021/07/14 11:38:06;;;;;;;3.77;3.50;;;23.60;99.90;;;;;;4976087;28;20445;-67
2021/07/14 11:40:40;;;;;;;3.70;3.40;;;23.80;99.90;;;;;;4975240;28;20490;-65
2021/07/14 11:43:23;;;;;;;3.77;3.00;;;23.80;99.90;;;;;;4979106;28;20821;-66
2021/07/14 11:45:51;;;;;;;2.90;2.70;;;24.10;99.90;;;;;;4980270;28;20446;-66
2021/07/14 11:48:31;;;;;;;2.67;2.30;;;24.20;99.90;;;;;;4981115;28;20462;-66
2021/07/14 11:50:59;;;;;;;2.23;2.13;;;24.30;99.90;;;;;;4980752;28;20501;-66
2021/07/14 11:53:37;;;;;;;2.10;2.00;;;24.60;99.90;;;;;;4978725;28;20454;-66
2021/07/14 11:56:06;;;;;;;2.00;1.90;;;24.30;99.90;;;;;;4978643;28;20537;-66
2021/07/14 11:59:08;;;;;;;2.33;2.23;;;24.40;99.90;;;;;;4978437;28;20454;-66
2021/07/14 12:02:00;;;;;;;2.43;1.90;;;24.30;99.90;;;;;;4978089;28;20501;-66
2021/07/14 12:04:34;;;;;;;3.30;2.03;;;24.20;99.90;;;;;;4978673;28;20478;-66
2021/07/14 12:07:13;;;;;;;2.10;2.00;;;24.30;99.90;;;;;;4978607;28;20454;-66
2021/07/14 12:09:49;;;;;;;1.60;1.60;;;24.30;99.90;;;;;;4978588;28;20442;-66
2021/07/14 12:12:26;;;;;;;1.60;1.60;;;24.20;99.90;;;;;;4978177;28;21048;-66
2021/07/14 12:14:54;;;;;;;1.57;1.47;;;24.00;99.90;;;;;;4982707;28;20442;-66
2021/07/14 12:17:23;;;;;;;1.53;1.43;;;24.10;99.90;;;;;;4986195;28;20458;-67
2021/07/14 12:19:53;;;;;;;1.67;1.67;;;24.10;99.90;;;;;;4981746;28;21027;-66
2021/07/14 12:22:22;;;;;;;1.70;1.63;;;24.40;99.90;;;;;;4979237;28;20561;-65
2021/07/14 12:24:53;;;;;;;2.30;2.07;;;24.60;99.90;;;;;;4978724;28;20459;-65
2021/07/14 12:27:21;;;;;;;3.27;1.70;;;24.60;99.90;;;;;;4978609;28;20443;-66
2021/07/14 12:29:51;;;;;;;3.83;1.43;;;24.80;99.90;;;;;;4978460;28;20800;-66
2021/07/14 12:32:28;;;;;;;1.50;1.50;;;24.90;99.90;;;;;;4978071;28;20479;-65
2021/07/14 12:34:55;;;;;;;1.63;1.53;;;25.20;99.90;;;;;;4978034;28;20465;-65
2021/07/14 12:37:22;;;;;;;1.30;1.30;;;25.20;99.90;;;;;;4978351;28;20454;-66
2021/07/14 12:39:50;;;;;;;1.50;1.50;;;25.40;99.90;;;;;;4978579;28;20502;-66
2021/07/14 12:42:22;;;;;;;2.20;1.40;;;25.50;99.90;;;;;;4978980;28;20481;-67
2021/07/14 12:44:50;;;;;;;2.87;1.43;;;25.40;99.90;;;;;;4980331;28;20497;-67
2021/07/14 12:47:18;;;;;;;1.30;1.20;;;25.40;99.90;;;;;;4978028;28;20451;-67
2021/07/14 12:49:46;;;;;;;1.20;1.20;;;25.30;99.90;;;;;;4978107;28;20481;-67
2021/07/14 12:52:16;;;;;;;1.50;1.50;;;25.20;99.90;;;;;;4977199;28;20474;-66
2021/07/14 12:54:44;;;;;;;1.83;1.37;;;25.20;99.90;;;;;;4978272;28;20490;-66
2021/07/14 12:57:20;;;;;;;1.83;1.73;;;25.30;99.90;;;;;;4977774;28;20454;-66
2021/07/14 12:59:59;;;;;;;1.60;1.50;;;25.30;99.90;;;;;;4977490;28;20474;-66
2021/07/14 13:02:28;;;;;;;1.33;1.30;;;25.30;99.90;;;;;;4977464;28;20490;-66
2021/07/14 13:04:59;;;;;;;1.30;1.30;;;25.20;99.90;;;;;;4977386;28;20458;-66
2021/07/14 13:07:28;;;;;;;2.43;1.83;;;25.20;99.90;;;;;;4977513;28;20439;-67
2021/07/14 13:09:57;;;;;;;1.50;1.40;;;25.20;99.90;;;;;;4976877;28;20455;-66
2021/07/14 13:12:25;;;;;;;1.93;1.63;;;25.40;99.90;;;;;;4977179;28;20845;-67
2021/07/14 13:14:53;;;;;;;1.67;1.57;;;25.20;99.90;;;;;;4979487;28;20822;-66
2021/07/14 13:17:31;;;;;;;1.30;1.30;;;25.20;99.90;;;;;;4977503;28;20455;-67
2021/07/14 13:20:12;;;;;;;1.30;1.23;;;25.00;99.90;;;;;;4977634;28;20517;-66
2021/07/14 13:22:40;;;;;;;1.70;1.57;;;24.70;99.90;;;;;;4977284;28;20474;-66
2021/07/14 13:25:10;;;;;;;1.53;1.50;;;24.70;99.90;;;;;;4977437;28;20966;-67
2021/07/14 13:27:39;;;;;;;1.50;1.40;;;24.50;99.90;;;;;;4978134;28;20443;-67
2021/07/14 13:30:26;;;;;;;1.33;1.23;;;24.60;99.90;;;;;;4981014;28;20493;-67
2021/07/14 13:33:04;;;;;;;2.40;1.37;;;24.60;99.90;;;;;;4977237;28;20458;-66
2021/07/14 13:35:36;;;;;;;1.17;1.17;;;24.60;99.90;;;;;;4977539;28;20470;-66
2021/07/14 13:38:04;;;;;;;1.33;1.33;;;24.80;99.90;;;;;;4976587;28;20458;-67
2021/07/14 13:40:32;;;;;;;1.23;1.03;;;24.80;99.90;;;;;;4976597;28;20485;-67
2021/07/14 13:43:01;;;;;;;1.47;1.37;;;24.90;99.90;;;;;;4976478;28;20570;-67
2021/07/14 13:45:32;;;;;;;1.50;1.40;;;24.70;99.90;;;;;;4976590;28;20450;-66
2021/07/14 13:48:00;;;;;;;1.13;1.13;;;24.70;99.90;;;;;;4976309;28;20462;-66
2021/07/14 13:50:27;;;;;;;1.20;1.20;;;24.80;99.90;;;;;;4976560;28;20463;-67
2021/07/14 13:52:59;;;;;;;1.50;1.40;;;24.90;99.90;;;;;;4976383;28;20461;-67
2021/07/14 13:55:26;;;;;;;1.43;1.37;;;25.00;99.90;;;;;;4976724;28;20505;-67
2021/07/14 13:57:52;;;;;;;1.70;1.60;;;25.10;99.90;;;;;;4976092;28;20830;-66
2021/07/14 14:00:21;;;;;;;3.23;2.00;;;25.40;99.90;;;;;;4976098;28;20482;-66
2021/07/14 14:02:58;;;;;;;2.30;2.00;;;25.70;99.90;;;;;;4976436;28;20439;-66
2021/07/14 14:05:25;;;;;;;1.70;1.70;;;25.90;99.90;;;;;;4976233;28;20474;-66
2021/07/14 14:07:52;;;;;;;1.13;1.03;;;26.00;99.90;;;;;;4976800;28;20454;-66
2021/07/14 14:10:22;;;;;;;2.00;1.90;;;25.90;99.90;;;;;;4976065;28;20450;-66
2021/07/14 14:12:52;;;;;;;1.90;1.90;;;25.90;99.90;;;;;;4976313;28;20431;-65
2021/07/14 14:15:23;;;;;;;2.00;1.90;;;25.90;99.90;;;;;;4975827;28;20942;-67
2021/07/14 14:17:53;;;;;;;1.90;1.80;;;25.70;99.90;;;;;;4976176;28;20443;-67
2021/07/14 14:20:25;;;;;;;1.70;1.60;;;25.60;99.90;;;;;;4975878;28;20556;-66
2021/07/14 14:22:52;;;;;;;2.30;2.10;;;25.60;99.90;;;;;;4976001;28;20438;-65
2021/07/14 14:25:24;;;;;;;2.20;2.10;;;25.60;99.90;;;;;;4975328;28;20968;-65
2021/07/14 14:27:55;;;;;;;2.20;2.20;;;25.60;99.90;;;;;;4975953;28;20811;-66
2021/07/14 14:30:27;;;;;;;2.30;2.20;;;25.50;99.90;;;;;;4975930;28;20463;-66
2021/07/14 14:32:55;;;;;;;2.93;2.17;;;25.50;99.90;;;;;;4976325;28;20768;-66
2021/07/14 14:35:24;;;;;;;2.60;1.70;;;25.40;99.90;;;;;;4976104;28;20458;-66
2021/07/14 14:37:51;;;;;;;2.60;2.37;;;25.20;99.90;;;;;;4975710;28;20469;-66
2021/07/14 14:40:20;;;;;;;1.73;1.63;;;25.20;99.90;;;;;;4975375;28;20577;-66
2021/07/14 14:42:47;;;;;;;2.67;1.53;;;25.40;99.90;;;;;;4975637;28;20455;-66
2021/07/14 14:45:15;;;;;;;1.90;1.80;;;25.60;99.90;;;;;;4975406;28;20442;-66
2021/07/14 14:47:44;;;;;;;2.00;1.90;;;25.70;99.90;;;;;;4975233;28;20454;-66
2021/07/14 14:50:12;;;;;;;2.20;1.50;;;25.60;99.90;;;;;;4975213;28;20459;-66
2021/07/14 14:52:38;;;;;;;2.00;1.90;;;25.50;99.90;;;;;;4974695;28;21031;-66
2021/07/14 14:55:07;;;;;;;1.70;1.60;;;25.70;99.90;;;;;;4975133;28;20481;-66
2021/07/14 14:57:33;;;;;;;1.83;1.70;;;25.90;99.90;;;;;;4975346;28;20461;-66
2021/07/14 15:00:00;;;;;;;1.93;1.83;;;25.80;99.90;;;;;;4975760;28;20462;-66
2021/07/14 15:02:27;;;;;;;1.90;1.80;;;26.20;99.90;;;;;;4979425;28;20486;-66
2021/07/14 15:04:57;;;;;;;3.40;1.63;;;26.20;99.90;;;;;;4975199;28;20455;-67
2021/07/14 15:07:23;;;;;;;1.87;1.77;;;26.20;99.90;;;;;;4975436;28;20539;-66
2021/07/14 15:09:51;;;;;;;2.10;1.93;;;26.30;99.90;;;;;;4975456;28;20454;-66
2021/07/14 15:12:19;;;;;;;1.80;1.80;;;26.20;99.90;;;;;;4974849;28;20478;-66
2021/07/14 15:14:46;;;;;;;1.57;1.50;;;25.90;99.90;;;;;;4975212;28;20458;-66
2021/07/14 15:17:12;;;;;;;1.63;1.43;;;25.80;99.90;;;;;;4978896;28;20454;-65
2021/07/14 15:19:39;;;;;;;1.83;1.70;;;25.70;99.90;;;;;;4979155;28;21000;-66
2021/07/14 15:22:12;;;;;;;2.10;1.90;;;25.70;99.90;;;;;;4979080;28;20890;-67
2021/07/14 15:24:39;;;;;;;1.63;1.53;;;25.70;99.90;;;;;;4984585;28;20533;-67
2021/07/14 15:29:50;;;;;;;3.83;1.90;;;25.90;99.90;;;;;;4983209;28;20422;-66
2021/07/14 15:32:17;;;;;;;1.67;1.57;;;25.70;99.90;;;;;;4979119;28;20992;-66
2021/07/14 15:34:43;;;;;;;1.50;1.50;;;25.70;99.90;;;;;;4978871;28;20461;-66
2021/07/14 15:37:13;;;;;;;1.70;1.60;;;25.60;99.90;;;;;;4978984;28;20454;-66
2021/07/14 15:39:40;;;;;;;1.80;1.80;;;25.40;99.90;;;;;;4978650;28;20462;-66
2021/07/14 15:42:07;;;;;;;1.87;1.77;;;25.30;99.90;;;;;;4978281;28;20486;-66
2021/07/14 15:44:34;;;;;;;2.03;1.93;;;25.20;99.90;;;;;;4978481;28;20458;-66
2021/07/14 15:47:00;;;;;;;1.90;1.80;;;25.20;99.90;;;;;;4978383;28;20465;-66
2021/07/14 15:49:27;;;;;;;1.60;1.60;;;25.10;99.90;;;;;;4978845;28;20466;-67
2021/07/14 15:51:54;;;;;;;1.50;1.40;;;24.80;99.90;;;;;;4978842;28;20467;-66
2021/07/14 15:54:22;;;;;;;1.50;1.50;;;24.50;99.90;;;;;;4978701;28;20827;-66
2021/07/14 15:56:48;;;;;;;1.27;1.27;;;24.60;99.90;;;;;;4978422;28;20455;-67
2021/07/14 15:59:15;;;;;;;1.33;1.33;;;24.70;99.90;;;;;;4978858;28;20473;-66
2021/07/14 16:01:42;;;;;;;1.47;1.37;;;24.80;99.90;;;;;;4978189;28;20490;-66
2021/07/14 16:04:11;;;;;;;1.50;1.40;;;24.90;99.90;;;;;;4978314;28;20462;-66
2021/07/14 16:06:38;;;;;;;2.10;1.57;;;25.10;99.90;;;;;;4978338;28;20878;-66
2021/07/14 16:09:04;;;;;;;1.70;1.60;;;25.00;99.90;;;;;;4978388;28;20485;-66
2021/07/14 16:11:32;;;;;;;2.00;1.60;;;25.00;99.90;;;;;;4978109;28;20475;-66
2021/07/14 16:13:59;;;;;;;1.57;1.50;;;24.90;99.90;;;;;;4978232;28;20462;-66
2021/07/14 16:16:26;;;;;;;2.00;1.50;;;24.70;99.90;;;;;;4978452;28;20493;-66
2021/07/14 16:18:54;;;;;;;6.30;1.63;;;24.60;99.90;;;;;;4978243;28;20454;-66
2021/07/14 16:21:20;;;;;;;1.23;1.20;;;24.70;99.90;;;;;;4978038;28;20811;-66
2021/07/14 16:23:47;;;;;;;1.27;1.27;;;24.80;99.90;;;;;;4978191;28;20473;-65
2021/07/14 16:26:15;;;;;;;1.20;1.20;;;24.90;99.90;;;;;;4977991;28;20465;-66
2021/07/14 16:28:44;;;;;;;1.50;1.50;;;24.80;99.90;;;;;;4977830;28;20513;-66
2021/07/14 16:31:11;;;;;;;1.70;1.60;;;24.90;99.90;;;;;;4978580;28;20474;-66
2021/07/14 16:33:37;;;;;;;1.20;1.20;;;24.80;99.90;;;;;;4981346;28;20478;-67
2021/07/14 16:36:05;;;;;;;1.30;1.30;;;24.60;99.90;;;;;;4979471;28;20458;-66
2021/07/14 16:38:31;;;;;;;1.60;1.50;;;24.40;99.90;;;;;;4978036;28;20466;-66
2021/07/14 16:40:58;;;;;;;1.53;1.53;;;24.00;99.90;;;;;;4977891;28;20478;-67
2021/07/14 16:43:25;;;;;;;1.60;1.50;;;23.80;99.90;;;;;;4978088;28;20467;-67
2021/07/14 16:45:53;;;;;;;1.60;1.60;;;23.60;99.90;;;;;;4978041;28;20462;-67
2021/07/14 16:48:19;;;;;;;1.47;1.43;;;23.40;99.90;;;;;;4977559;28;20461;-67
2021/07/14 16:50:46;;;;;;;1.30;1.30;;;23.30;99.90;;;;;;4977539;28;20886;-67
2021/07/14 16:53:13;;;;;;;1.90;1.67;;;23.20;99.90;;;;;;4977035;28;20977;-66
2021/07/14 16:55:40;;;;;;;1.30;1.30;;;23.00;99.90;;;;;;4978159;28;20460;-66
2021/07/14 16:58:06;;;;;;;2.27;1.90;;;23.00;99.90;;;;;;4977466;28;20505;-67